sensor_id;sensor_type;location;lat;lon;timestamp;temperature;humidity
54192;DHT22;40101;53.002;6.488;2023-02-08T00:01:23;-0.80;99.90
54192;DHT22;40101;53.002;6.488;2023-02-08T00:04:15;-0.20;99.90
54192;DHT22;40101;53.002;6.488;2023-02-08T00:15:55;-1.20;99.90
54192;DHT22;40101;53.002;6.488;2023-02-08T00:18:22;-1.30;99.90
54192;DHT22;40101;53.002;6.488;2023-02-08T00:20:50;-1.30;99.90
54192;DHT22;40101;53.002;6.488;2023-02-08T00:23:21;-1.30;99.90
54192;DHT22;40101;53.002;6.488;2023-02-08T00:25:50;-0.90;99.90
54192;DHT22;40101;53.002;6.488;2023-02-08T00:28:21;-0.90;99.90
54192;DHT22;40101;53.002;6.488;2023-02-08T00:30:50;-1.30;99.90
54192;DHT22;40101;53.002;6.488;2023-02-08T00:37:23;-1.50;99.90
54192;DHT22;40101;53.002;6.488;2023-02-08T00:43:43;-1.50;99.90
54192;DHT22;40101;53.002;6.488;2023-02-08T00:54:42;-1.50;99.90
54192;DHT22;40101;53.002;6.488;2023-02-08T01:20:02;-1.40;99.90
54192;DHT22;40101;53.002;6.488;2023-02-08T01:33:10;-1.10;99.90
54192;DHT22;40101;53.002;6.488;2023-02-08T01:36:02;-1.40;99.90
54192;DHT22;40101;53.002;6.488;2023-02-08T01:42:46;-1.40;99.90
54192;DHT22;40101;53.002;6.488;2023-02-08T01:47:44;-1.50;99.90
54192;DHT22;40101;53.002;6.488;2023-02-08T01:54:35;-1.50;99.90
54192;DHT22;40101;53.002;6.488;2023-02-08T02:00:18;-1.60;99.90
54192;DHT22;40101;53.002;6.488;2023-02-08T02:02:56;-1.00;99.90
54192;DHT22;40101;53.002;6.488;2023-02-08T02:06:26;-1.20;99.90
54192;DHT22;40101;53.002;6.488;2023-02-08T02:09:20;-1.60;99.90
54192;DHT22;40101;53.002;6.488;2023-02-08T02:12:22;-1.60;99.90
54192;DHT22;40101;53.002;6.488;2023-02-08T02:14:48;-1.60;99.90
54192;DHT22;40101;53.002;6.488;2023-02-08T02:26:23;-1.60;99.90
54192;DHT22;40101;53.002;6.488;2023-02-08T02:32:02;-1.60;99.90
54192;DHT22;40101;53.002;6.488;2023-02-08T02:35:07;-1.60;99.90
54192;DHT22;40101;53.002;6.488;2023-02-08T02:47:36;-1.50;99.90
54192;DHT22;40101;53.002;6.488;2023-02-08T02:50:15;-1.60;99.90
54192;DHT22;40101;53.002;6.488;2023-02-08T02:52:58;-1.60;99.90
54192;DHT22;40101;53.002;6.488;2023-02-08T02:59:02;-1.70;99.90
54192;DHT22;40101;53.002;6.488;2023-02-08T03:01:29;-1.70;99.90
54192;DHT22;40101;53.002;6.488;2023-02-08T03:03:55;-1.30;99.90
54192;DHT22;40101;53.002;6.488;2023-02-08T03:09:25;-1.70;99.90
54192;DHT22;40101;53.002;6.488;2023-02-08T03:12:07;-1.70;99.90
54192;DHT22;40101;53.002;6.488;2023-02-08T03:15:19;-1.70;99.90
54192;DHT22;40101;53.002;6.488;2023-02-08T03:23:59;-1.80;99.90
54192;DHT22;40101;53.002;6.488;2023-02-08T03:26:34;-1.80;99.90
54192;DHT22;40101;53.002;6.488;2023-02-08T03:31:52;-1.00;99.90
54192;DHT22;40101;53.002;6.488;2023-02-08T03:38:16;-1.70;99.90
54192;DHT22;40101;53.002;6.488;2023-02-08T03:40:59;-1.60;99.90
54192;DHT22;40101;53.002;6.488;2023-02-08T03:44:09;-1.60;99.90
54192;DHT22;40101;53.002;6.488;2023-02-08T03:49:29;-1.70;99.90
54192;DHT22;40101;53.002;6.488;2023-02-08T03:52:01;-1.60;99.90
54192;DHT22;40101;53.002;6.488;2023-02-08T03:54:32;-1.60;99.90
54192;DHT22;40101;53.002;6.488;2023-02-08T03:57:09;-1.50;99.90
54192;DHT22;40101;53.002;6.488;2023-02-08T03:59:43;-1.60;99.90
54192;DHT22;40101;53.002;6.488;2023-02-08T04:02:13;-1.60;99.90
54192;DHT22;40101;53.002;6.488;2023-02-08T04:05:13;-1.60;99.90
54192;DHT22;40101;53.002;6.488;2023-02-08T04:07:52;-2.00;99.90
54192;DHT22;40101;53.002;6.488;2023-02-08T04:10:24;-1.20;99.90
54192;DHT22;40101;53.002;6.488;2023-02-08T04:12:52;-1.40;99.90
54192;DHT22;40101;53.002;6.488;2023-02-08T04:15:19;-1.20;99.90
54192;DHT22;40101;53.002;6.488;2023-02-08T04:24:24;-1.40;99.90
54192;DHT22;40101;53.002;6.488;2023-02-08T04:26:55;-1.60;99.90
54192;DHT22;40101;53.002;6.488;2023-02-08T04:32:32;-1.60;99.90
54192;DHT22;40101;53.002;6.488;2023-02-08T04:38:19;-1.70;99.90
54192;DHT22;40101;53.002;6.488;2023-02-08T04:40:45;-1.70;99.90
54192;DHT22;40101;53.002;6.488;2023-02-08T04:43:11;-1.00;99.90
54192;DHT22;40101;53.002;6.488;2023-02-08T04:45:37;-1.70;99.90
54192;DHT22;40101;53.002;6.488;2023-02-08T04:48:03;-1.70;99.90
54192;DHT22;40101;53.002;6.488;2023-02-08T04:50:33;-1.60;99.90
54192;DHT22;40101;53.002;6.488;2023-02-08T04:52:59;-1.70;99.90
54192;DHT22;40101;53.002;6.488;2023-02-08T04:55:28;-1.60;99.90
54192;DHT22;40101;53.002;6.488;2023-02-08T04:57:53;-1.70;99.90
54192;DHT22;40101;53.002;6.488;2023-02-08T05:00:22;-1.60;99.90
54192;DHT22;40101;53.002;6.488;2023-02-08T05:02:54;-1.80;99.90
54192;DHT22;40101;53.002;6.488;2023-02-08T05:05:24;-1.80;99.90
54192;DHT22;40101;53.002;6.488;2023-02-08T05:07:50;-1.80;99.90
54192;DHT22;40101;53.002;6.488;2023-02-08T05:10:16;-1.80;99.90
54192;DHT22;40101;53.002;6.488;2023-02-08T05:12:42;-1.80;99.90
54192;DHT22;40101;53.002;6.488;2023-02-08T05:15:08;-1.80;99.90
54192;DHT22;40101;53.002;6.488;2023-02-08T05:17:34;-1.90;99.90
54192;DHT22;40101;53.002;6.488;2023-02-08T05:20:02;-1.90;99.90
54192;DHT22;40101;53.002;6.488;2023-02-08T05:22:28;-1.50;99.90
54192;DHT22;40101;53.002;6.488;2023-02-08T05:25:15;-1.90;99.90
54192;DHT22;40101;53.002;6.488;2023-02-08T05:27:45;-1.60;99.90
54192;DHT22;40101;53.002;6.488;2023-02-08T05:30:14;-1.90;99.90
54192;DHT22;40101;53.002;6.488;2023-02-08T05:32:50;-2.10;99.90
54192;DHT22;40101;53.002;6.488;2023-02-08T05:35:18;-1.30;99.90
54192;DHT22;40101;53.002;6.488;2023-02-08T05:37:44;-1.90;99.90
54192;DHT22;40101;53.002;6.488;2023-02-08T05:40:24;-1.80;99.90
54192;DHT22;40101;53.002;6.488;2023-02-08T05:42:50;-1.80;99.90
54192;DHT22;40101;53.002;6.488;2023-02-08T05:45:26;-1.80;99.90
54192;DHT22;40101;53.002;6.488;2023-02-08T05:47:54;-2.00;99.90
54192;DHT22;40101;53.002;6.488;2023-02-08T05:50:20;-2.00;99.90
54192;DHT22;40101;53.002;6.488;2023-02-08T05:52:46;-1.90;99.90
54192;DHT22;40101;53.002;6.488;2023-02-08T05:55:16;-2.00;99.90
54192;DHT22;40101;53.002;6.488;2023-02-08T05:57:43;-2.00;99.90
54192;DHT22;40101;53.002;6.488;2023-02-08T06:00:21;-1.80;99.90
54192;DHT22;40101;53.002;6.488;2023-02-08T06:02:46;-2.10;99.90
54192;DHT22;40101;53.002;6.488;2023-02-08T06:05:15;-2.00;99.90
54192;DHT22;40101;53.002;6.488;2023-02-08T06:07:59;-1.40;99.90
54192;DHT22;40101;53.002;6.488;2023-02-08T06:10:25;-1.70;99.90
54192;DHT22;40101;53.002;6.488;2023-02-08T06:12:51;-1.90;99.90
54192;DHT22;40101;53.002;6.488;2023-02-08T06:18:42;-2.10;99.90
54192;DHT22;40101;53.002;6.488;2023-02-08T06:21:26;-2.00;99.90
54192;DHT22;40101;53.002;6.488;2023-02-08T06:23:53;-2.00;99.90
54192;DHT22;40101;53.002;6.488;2023-02-08T06:26:28;-2.00;99.90
54192;DHT22;40101;53.002;6.488;2023-02-08T06:28:58;-1.60;99.90
54192;DHT22;40101;53.002;6.488;2023-02-08T06:31:24;-2.00;99.90
54192;DHT22;40101;53.002;6.488;2023-02-08T06:33:50;-0.70;99.90
54192;DHT22;40101;53.002;6.488;2023-02-08T06:36:19;-2.00;99.90
54192;DHT22;40101;53.002;6.488;2023-02-08T06:38:45;-2.00;99.90
54192;DHT22;40101;53.002;6.488;2023-02-08T06:41:23;-2.30;99.90
54192;DHT22;40101;53.002;6.488;2023-02-08T06:43:54;-1.90;99.90
54192;DHT22;40101;53.002;6.488;2023-02-08T06:46:42;-2.10;99.90
54192;DHT22;40101;53.002;6.488;2023-02-08T06:52:28;-2.10;99.90
54192;DHT22;40101;53.002;6.488;2023-02-08T06:54:56;-2.10;99.90
54192;DHT22;40101;53.002;6.488;2023-02-08T06:57:22;-2.10;99.90
54192;DHT22;40101;53.002;6.488;2023-02-08T06:59:47;-1.80;99.90
54192;DHT22;40101;53.002;6.488;2023-02-08T07:02:16;-2.10;99.90
54192;DHT22;40101;53.002;6.488;2023-02-08T07:05:06;-2.00;99.90
54192;DHT22;40101;53.002;6.488;2023-02-08T07:07:35;-2.00;99.90
54192;DHT22;40101;53.002;6.488;2023-02-08T07:10:07;-1.10;99.90
54192;DHT22;40101;53.002;6.488;2023-02-08T07:12:34;-2.00;99.90
54192;DHT22;40101;53.002;6.488;2023-02-08T07:15:02;-1.70;99.90
54192;DHT22;40101;53.002;6.488;2023-02-08T07:17:47;-2.00;99.90
54192;DHT22;40101;53.002;6.488;2023-02-08T07:36:50;-1.70;99.90
54192;DHT22;40101;53.002;6.488;2023-02-08T07:39:46;-1.70;99.90
54192;DHT22;40101;53.002;6.488;2023-02-08T07:42:24;-1.30;99.90
54192;DHT22;40101;53.002;6.488;2023-02-08T07:45:11;-1.20;99.90
54192;DHT22;40101;53.002;6.488;2023-02-08T07:48:27;-1.00;99.90
54192;DHT22;40101;53.002;6.488;2023-02-08T07:51:20;-0.80;99.90
54192;DHT22;40101;53.002;6.488;2023-02-08T07:57:47;0.70;99.90
54192;DHT22;40101;53.002;6.488;2023-02-08T08:00:48;1.90;99.90
54192;DHT22;40101;53.002;6.488;2023-02-08T08:03:42;2.70;99.90
54192;DHT22;40101;53.002;6.488;2023-02-08T08:10:06;4.10;99.90
54192;DHT22;40101;53.002;6.488;2023-02-08T08:16:00;5.40;99.90
54192;DHT22;40101;53.002;6.488;2023-02-08T08:18:26;5.80;99.90
54192;DHT22;40101;53.002;6.488;2023-02-08T08:21:02;5.60;99.90
54192;DHT22;40101;53.002;6.488;2023-02-08T08:27:26;5.90;99.90
54192;DHT22;40101;53.002;6.488;2023-02-08T08:34:13;6.90;99.90
54192;DHT22;40101;53.002;6.488;2023-02-08T08:40:12;8.20;99.90
54192;DHT22;40101;53.002;6.488;2023-02-08T08:42:38;9.00;99.90
54192;DHT22;40101;53.002;6.488;2023-02-08T08:45:09;9.00;99.90
54192;DHT22;40101;53.002;6.488;2023-02-08T08:47:35;9.00;99.90
54192;DHT22;40101;53.002;6.488;2023-02-08T08:50:01;9.00;99.90
54192;DHT22;40101;53.002;6.488;2023-02-08T08:52:27;9.50;99.90
54192;DHT22;40101;53.002;6.488;2023-02-08T08:55:07;9.60;99.90
54192;DHT22;40101;53.002;6.488;2023-02-08T08:57:39;9.40;99.90
54192;DHT22;40101;53.002;6.488;2023-02-08T09:00:24;8.80;99.90
54192;DHT22;40101;53.002;6.488;2023-02-08T09:03:32;8.00;99.90
54192;DHT22;40101;53.002;6.488;2023-02-08T09:06:05;7.00;99.90
54192;DHT22;40101;53.002;6.488;2023-02-08T09:08:47;6.50;99.90
54192;DHT22;40101;53.002;6.488;2023-02-08T09:11:26;6.30;99.90
54192;DHT22;40101;53.002;6.488;2023-02-08T09:13:56;6.10;99.90
54192;DHT22;40101;53.002;6.488;2023-02-08T09:16:23;5.80;99.90
54192;DHT22;40101;53.002;6.488;2023-02-08T09:18:49;6.20;99.90
54192;DHT22;40101;53.002;6.488;2023-02-08T09:21:17;6.20;99.90
54192;DHT22;40101;53.002;6.488;2023-02-08T09:23:43;6.70;99.90
54192;DHT22;40101;53.002;6.488;2023-02-08T09:26:13;7.00;99.90
54192;DHT22;40101;53.002;6.488;2023-02-08T09:28:39;7.40;99.90
54192;DHT22;40101;53.002;6.488;2023-02-08T09:31:09;7.80;99.90
54192;DHT22;40101;53.002;6.488;2023-02-08T09:33:35;8.00;99.90
54192;DHT22;40101;53.002;6.488;2023-02-08T09:36:20;8.30;99.90
54192;DHT22;40101;53.002;6.488;2023-02-08T09:38:48;8.80;99.90
54192;DHT22;40101;53.002;6.488;2023-02-08T09:47:27;10.90;99.90
54192;DHT22;40101;53.002;6.488;2023-02-08T09:53:35;11.40;95.30
54192;DHT22;40101;53.002;6.488;2023-02-08T09:56:08;11.40;96.30
54192;DHT22;40101;53.002;6.488;2023-02-08T09:58:49;11.50;95.40
54192;DHT22;40101;53.002;6.488;2023-02-08T10:03:59;11.90;93.20
54192;DHT22;40101;53.002;6.488;2023-02-08T10:07:02;11.80;91.50
54192;DHT22;40101;53.002;6.488;2023-02-08T10:09:35;11.60;90.60
54192;DHT22;40101;53.002;6.488;2023-02-08T10:20:52;12.10;89.10
54192;DHT22;40101;53.002;6.488;2023-02-08T10:24:19;12.20;88.70
54192;DHT22;40101;53.002;6.488;2023-02-08T10:26:40;12.20;83.30
54192;DHT22;40101;53.002;6.488;2023-02-08T10:32:06;11.90;83.60
54192;DHT22;40101;53.002;6.488;2023-02-08T10:34:59;11.50;81.80
54192;DHT22;40101;53.002;6.488;2023-02-08T10:37:35;11.50;81.40
54192;DHT22;40101;53.002;6.488;2023-02-08T10:42:47;10.50;84.20
54192;DHT22;40101;53.002;6.488;2023-02-08T10:45:31;9.40;86.80
54192;DHT22;40101;53.002;6.488;2023-02-08T10:48:10;8.30;90.10
54192;DHT22;40101;53.002;6.488;2023-02-08T10:50:42;7.50;92.00
54192;DHT22;40101;53.002;6.488;2023-02-08T10:53:14;7.10;93.60
54192;DHT22;40101;53.002;6.488;2023-02-08T10:55:46;6.70;95.20
54192;DHT22;40101;53.002;6.488;2023-02-08T10:58:18;6.80;97.00
54192;DHT22;40101;53.002;6.488;2023-02-08T11:00:57;6.50;96.70
54192;DHT22;40101;53.002;6.488;2023-02-08T11:03:29;6.20;97.40
54192;DHT22;40101;53.002;6.488;2023-02-08T11:05:55;6.20;97.90
54192;DHT22;40101;53.002;6.488;2023-02-08T11:08:26;6.10;98.90
54192;DHT22;40101;53.002;6.488;2023-02-08T11:11:06;6.10;99.50
54192;DHT22;40101;53.002;6.488;2023-02-08T11:13:45;6.30;99.90
54192;DHT22;40101;53.002;6.488;2023-02-08T11:19:39;6.00;97.50
54192;DHT22;40101;53.002;6.488;2023-02-08T11:26:17;5.20;99.80
54192;DHT22;40101;53.002;6.488;2023-02-08T11:28:44;6.10;98.80
54192;DHT22;40101;53.002;6.488;2023-02-08T11:31:29;6.30;99.50
54192;DHT22;40101;53.002;6.488;2023-02-08T11:34:13;6.20;98.40
54192;DHT22;40101;53.002;6.488;2023-02-08T11:36:46;6.20;97.20
54192;DHT22;40101;53.002;6.488;2023-02-08T11:39:25;6.10;97.90
54192;DHT22;40101;53.002;6.488;2023-02-08T11:42:01;6.40;97.90
54192;DHT22;40101;53.002;6.488;2023-02-08T11:47:52;6.30;95.80
54192;DHT22;40101;53.002;6.488;2023-02-08T11:51:06;6.10;94.80
54192;DHT22;40101;53.002;6.488;2023-02-08T11:57:34;6.30;95.40
54192;DHT22;40101;53.002;6.488;2023-02-08T12:00:21;6.40;94.70
54192;DHT22;40101;53.002;6.488;2023-02-08T12:02:49;6.40;92.40
54192;DHT22;40101;53.002;6.488;2023-02-08T12:05:37;6.30;92.00
54192;DHT22;40101;53.002;6.488;2023-02-08T12:11:50;6.30;92.70
54192;DHT22;40101;53.002;6.488;2023-02-08T12:20:09;6.50;91.20
54192;DHT22;40101;53.002;6.488;2023-02-08T12:22:46;6.50;90.80
54192;DHT22;40101;53.002;6.488;2023-02-08T12:25:29;6.40;92.00
54192;DHT22;40101;53.002;6.488;2023-02-08T12:31:15;6.50;91.70
54192;DHT22;40101;53.002;6.488;2023-02-08T12:34:34;6.60;92.20
54192;DHT22;40101;53.002;6.488;2023-02-08T13:25:41;7.00;86.40
54192;DHT22;40101;53.002;6.488;2023-02-08T13:28:47;7.10;85.40
54192;DHT22;40101;53.002;6.488;2023-02-08T13:45:44;6.90;87.40
54192;DHT22;40101;53.002;6.488;2023-02-08T13:59:38;7.20;86.90
54192;DHT22;40101;53.002;6.488;2023-02-08T14:12:42;7.20;86.40
54192;DHT22;40101;53.002;6.488;2023-02-08T14:15:29;7.00;84.70
54192;DHT22;40101;53.002;6.488;2023-02-08T14:18:26;6.90;85.90
54192;DHT22;40101;53.002;6.488;2023-02-08T14:28:29;7.20;83.20
54192;DHT22;40101;53.002;6.488;2023-02-08T14:30:58;7.20;81.20
54192;DHT22;40101;53.002;6.488;2023-02-08T14:39:40;7.10;82.40
54192;DHT22;40101;53.002;6.488;2023-02-08T14:46:40;7.20;83.10
54192;DHT22;40101;53.002;6.488;2023-02-08T14:59:24;7.10;81.20
54192;DHT22;40101;53.002;6.488;2023-02-08T15:02:23;7.10;82.30
54192;DHT22;40101;53.002;6.488;2023-02-08T15:08:04;7.00;81.80
54192;DHT22;40101;53.002;6.488;2023-02-08T15:16:42;7.00;81.20
54192;DHT22;40101;53.002;6.488;2023-02-08T15:26:33;6.70;81.60
54192;DHT22;40101;53.002;6.488;2023-02-08T15:28:59;6.80;82.40
54192;DHT22;40101;53.002;6.488;2023-02-08T15:31:30;6.70;81.80
54192;DHT22;40101;53.002;6.488;2023-02-08T15:33:57;6.60;80.80
54192;DHT22;40101;53.002;6.488;2023-02-08T15:36:35;6.70;80.80
54192;DHT22;40101;53.002;6.488;2023-02-08T15:39:09;6.70;80.30
54192;DHT22;40101;53.002;6.488;2023-02-08T15:41:36;6.60;80.80
54192;DHT22;40101;53.002;6.488;2023-02-08T15:44:22;6.60;81.00
54192;DHT22;40101;53.002;6.488;2023-02-08T15:46:50;6.50;80.90
54192;DHT22;40101;53.002;6.488;2023-02-08T15:49:22;6.40;82.10
54192;DHT22;40101;53.002;6.488;2023-02-08T15:51:49;6.40;82.40
54192;DHT22;40101;53.002;6.488;2023-02-08T15:54:18;6.00;83.90
54192;DHT22;40101;53.002;6.488;2023-02-08T15:56:58;6.20;82.40
54192;DHT22;40101;53.002;6.488;2023-02-08T15:59:31;6.10;83.10
54192;DHT22;40101;53.002;6.488;2023-02-08T16:02:03;6.00;82.70
54192;DHT22;40101;53.002;6.488;2023-02-08T16:04:42;6.30;82.70
54192;DHT22;40101;53.002;6.488;2023-02-08T16:09:49;5.80;80.60
54192;DHT22;40101;53.002;6.488;2023-02-08T16:12:20;5.80;82.20
54192;DHT22;40101;53.002;6.488;2023-02-08T16:14:47;5.70;81.30
54192;DHT22;40101;53.002;6.488;2023-02-08T16:17:37;6.00;82.60
54192;DHT22;40101;53.002;6.488;2023-02-08T16:20:24;5.80;82.00
54192;DHT22;40101;53.002;6.488;2023-02-08T16:23:24;5.50;82.00
54192;DHT22;40101;53.002;6.488;2023-02-08T16:25:50;5.50;82.20
54192;DHT22;40101;53.002;6.488;2023-02-08T16:30:49;5.40;82.00
54192;DHT22;40101;53.002;6.488;2023-02-08T16:33:14;5.30;82.30
54192;DHT22;40101;53.002;6.488;2023-02-08T16:35:40;5.50;81.40
54192;DHT22;40101;53.002;6.488;2023-02-08T16:38:08;5.20;81.80
54192;DHT22;40101;53.002;6.488;2023-02-08T16:45:41;5.00;81.80
54192;DHT22;40101;53.002;6.488;2023-02-08T16:48:31;5.30;83.60
54192;DHT22;40101;53.002;6.488;2023-02-08T16:51:02;4.80;83.60
54192;DHT22;40101;53.002;6.488;2023-02-08T16:53:29;5.00;84.50
54192;DHT22;40101;53.002;6.488;2023-02-08T16:55:57;4.90;85.00
54192;DHT22;40101;53.002;6.488;2023-02-08T16:58:23;4.60;84.50
54192;DHT22;40101;53.002;6.488;2023-02-08T17:00:49;5.20;84.40
54192;DHT22;40101;53.002;6.488;2023-02-08T17:03:14;4.50;83.70
54192;DHT22;40101;53.002;6.488;2023-02-08T17:05:40;4.50;83.30
54192;DHT22;40101;53.002;6.488;2023-02-08T17:08:14;4.80;84.50
54192;DHT22;40101;53.002;6.488;2023-02-08T17:10:59;4.50;85.50
54192;DHT22;40101;53.002;6.488;2023-02-08T17:13:25;4.40;86.20
54192;DHT22;40101;53.002;6.488;2023-02-08T17:15:51;4.30;86.80
54192;DHT22;40101;53.002;6.488;2023-02-08T17:18:18;4.30;87.80
54192;DHT22;40101;53.002;6.488;2023-02-08T17:20:45;4.40;87.80
54192;DHT22;40101;53.002;6.488;2023-02-08T17:23:11;4.00;87.50
54192;DHT22;40101;53.002;6.488;2023-02-08T17:25:38;4.00;88.20
54192;DHT22;40101;53.002;6.488;2023-02-08T17:28:07;3.90;88.50
54192;DHT22;40101;53.002;6.488;2023-02-08T17:30:39;3.80;88.90
54192;DHT22;40101;53.002;6.488;2023-02-08T17:33:06;3.80;89.80
54192;DHT22;40101;53.002;6.488;2023-02-08T17:35:33;4.40;90.20
54192;DHT22;40101;53.002;6.488;2023-02-08T17:37:59;3.70;90.00
54192;DHT22;40101;53.002;6.488;2023-02-08T17:40:28;3.70;90.00
54192;DHT22;40101;53.002;6.488;2023-02-08T17:42:57;3.70;90.20
54192;DHT22;40101;53.002;6.488;2023-02-08T17:45:23;4.00;90.60
54192;DHT22;40101;53.002;6.488;2023-02-08T17:48:08;3.70;90.80
54192;DHT22;40101;53.002;6.488;2023-02-08T17:50:34;3.70;90.80
54192;DHT22;40101;53.002;6.488;2023-02-08T17:53:00;3.60;91.10
54192;DHT22;40101;53.002;6.488;2023-02-08T17:55:27;3.60;91.10
54192;DHT22;40101;53.002;6.488;2023-02-08T17:57:53;3.70;91.30
54192;DHT22;40101;53.002;6.488;2023-02-08T18:00:20;3.50;91.50
54192;DHT22;40101;53.002;6.488;2023-02-08T18:02:49;3.50;91.70
54192;DHT22;40101;53.002;6.488;2023-02-08T18:05:16;3.50;92.00
54192;DHT22;40101;53.002;6.488;2023-02-08T18:07:43;3.40;92.30
54192;DHT22;40101;53.002;6.488;2023-02-08T18:10:09;3.60;92.60
54192;DHT22;40101;53.002;6.488;2023-02-08T18:12:37;3.50;92.80
54192;DHT22;40101;53.002;6.488;2023-02-08T18:15:04;3.50;92.80
54192;DHT22;40101;53.002;6.488;2023-02-08T18:17:31;3.30;92.50
54192;DHT22;40101;53.002;6.488;2023-02-08T18:19:57;3.60;92.40
54192;DHT22;40101;53.002;6.488;2023-02-08T18:22:24;3.30;92.10
54192;DHT22;40101;53.002;6.488;2023-02-08T18:24:50;3.30;92.00
54192;DHT22;40101;53.002;6.488;2023-02-08T18:27:15;3.40;91.60
54192;DHT22;40101;53.002;6.488;2023-02-08T18:29:41;3.40;91.20
54192;DHT22;40101;53.002;6.488;2023-02-08T18:32:07;3.40;91.30
54192;DHT22;40101;53.002;6.488;2023-02-08T18:34:52;3.40;91.30
54192;DHT22;40101;53.002;6.488;2023-02-08T18:37:18;3.40;91.60
54192;DHT22;40101;53.002;6.488;2023-02-08T18:39:44;3.30;91.50
54192;DHT22;40101;53.002;6.488;2023-02-08T18:42:10;3.30;91.60
54192;DHT22;40101;53.002;6.488;2023-02-08T18:44:36;3.20;91.20
54192;DHT22;40101;53.002;6.488;2023-02-08T18:47:03;3.20;91.30
54192;DHT22;40101;53.002;6.488;2023-02-08T18:49:29;3.70;91.50
54192;DHT22;40101;53.002;6.488;2023-02-08T18:51:56;3.20;91.50
54192;DHT22;40101;53.002;6.488;2023-02-08T18:54:21;3.40;91.50
54192;DHT22;40101;53.002;6.488;2023-02-08T18:56:50;3.10;91.50
54192;DHT22;40101;53.002;6.488;2023-02-08T18:59:19;3.00;91.50
54192;DHT22;40101;53.002;6.488;2023-02-08T19:01:44;3.00;91.70
54192;DHT22;40101;53.002;6.488;2023-02-08T19:04:10;2.90;91.90
54192;DHT22;40101;53.002;6.488;2023-02-08T19:06:36;2.80;92.30
54192;DHT22;40101;53.002;6.488;2023-02-08T19:09:05;2.80;92.90
54192;DHT22;40101;53.002;6.488;2023-02-08T19:11:33;2.70;93.50
54192;DHT22;40101;53.002;6.488;2023-02-08T19:14:01;2.60;94.50
54192;DHT22;40101;53.002;6.488;2023-02-08T19:16:29;2.60;95.20
54192;DHT22;40101;53.002;6.488;2023-02-08T19:18:55;2.50;97.10
54192;DHT22;40101;53.002;6.488;2023-02-08T19:21:21;2.30;98.10
54192;DHT22;40101;53.002;6.488;2023-02-08T19:23:52;2.60;98.30
54192;DHT22;40101;53.002;6.488;2023-02-08T19:26:26;2.10;98.40
54192;DHT22;40101;53.002;6.488;2023-02-08T19:28:54;2.20;99.50
54192;DHT22;40101;53.002;6.488;2023-02-08T19:31:23;2.50;99.90
54192;DHT22;40101;53.002;6.488;2023-02-08T19:33:51;2.10;99.90
54192;DHT22;40101;53.002;6.488;2023-02-08T19:36:26;2.10;99.90
54192;DHT22;40101;53.002;6.488;2023-02-08T19:38:53;2.00;99.90
54192;DHT22;40101;53.002;6.488;2023-02-08T19:41:22;2.00;99.90
54192;DHT22;40101;53.002;6.488;2023-02-08T19:43:49;1.90;99.90
54192;DHT22;40101;53.002;6.488;2023-02-08T19:46:17;2.30;99.90
54192;DHT22;40101;53.002;6.488;2023-02-08T19:48:45;1.90;99.90
54192;DHT22;40101;53.002;6.488;2023-02-08T19:51:11;1.90;99.90
54192;DHT22;40101;53.002;6.488;2023-02-08T19:53:37;2.00;99.90
54192;DHT22;40101;53.002;6.488;2023-02-08T19:56:05;1.90;99.90
54192;DHT22;40101;53.002;6.488;2023-02-08T19:58:33;1.80;99.90
54192;DHT22;40101;53.002;6.488;2023-02-08T20:00:59;1.80;99.90
54192;DHT22;40101;53.002;6.488;2023-02-08T20:03:24;1.80;99.90
54192;DHT22;40101;53.002;6.488;2023-02-08T20:05:51;1.80;99.90
54192;DHT22;40101;53.002;6.488;2023-02-08T20:08:22;1.80;99.90
54192;DHT22;40101;53.002;6.488;2023-02-08T20:10:52;1.80;99.90
54192;DHT22;40101;53.002;6.488;2023-02-08T20:13:18;1.80;99.90
54192;DHT22;40101;53.002;6.488;2023-02-08T20:15:44;1.70;99.90
54192;DHT22;40101;53.002;6.488;2023-02-08T20:18:12;1.70;99.90
54192;DHT22;40101;53.002;6.488;2023-02-08T20:20:39;1.50;99.90
54192;DHT22;40101;53.002;6.488;2023-02-08T20:23:13;1.70;99.90
54192;DHT22;40101;53.002;6.488;2023-02-08T20:25:39;2.00;99.90
54192;DHT22;40101;53.002;6.488;2023-02-08T20:28:05;1.70;99.90
54192;DHT22;40101;53.002;6.488;2023-02-08T20:30:32;1.70;99.90
54192;DHT22;40101;53.002;6.488;2023-02-08T20:32:57;1.70;99.90
54192;DHT22;40101;53.002;6.488;2023-02-08T20:35:23;1.60;99.90
54192;DHT22;40101;53.002;6.488;2023-02-08T20:37:49;1.60;99.90
54192;DHT22;40101;53.002;6.488;2023-02-08T20:40:15;1.60;99.90
54192;DHT22;40101;53.002;6.488;2023-02-08T20:42:41;1.60;99.90
54192;DHT22;40101;53.002;6.488;2023-02-08T20:45:08;1.50;99.90
54192;DHT22;40101;53.002;6.488;2023-02-08T20:47:38;1.50;99.90
54192;DHT22;40101;53.002;6.488;2023-02-08T20:50:05;1.50;99.90
54192;DHT22;40101;53.002;6.488;2023-02-08T20:52:34;1.60;99.90
54192;DHT22;40101;53.002;6.488;2023-02-08T20:54:59;1.50;99.90
54192;DHT22;40101;53.002;6.488;2023-02-08T20:57:25;1.50;99.90
54192;DHT22;40101;53.002;6.488;2023-02-08T20:59:51;1.40;99.90
54192;DHT22;40101;53.002;6.488;2023-02-08T21:02:19;2.50;99.90
54192;DHT22;40101;53.002;6.488;2023-02-08T21:04:45;1.30;99.90
54192;DHT22;40101;53.002;6.488;2023-02-08T21:07:11;1.20;99.90
54192;DHT22;40101;53.002;6.488;2023-02-08T21:09:37;1.20;99.90
54192;DHT22;40101;53.002;6.488;2023-02-08T21:12:03;1.20;99.90
54192;DHT22;40101;53.002;6.488;2023-02-08T21:14:29;1.10;99.90
54192;DHT22;40101;53.002;6.488;2023-02-08T21:16:55;1.10;99.90
54192;DHT22;40101;53.002;6.488;2023-02-08T21:19:26;1.10;99.90
54192;DHT22;40101;53.002;6.488;2023-02-08T21:21:53;1.10;99.90
54192;DHT22;40101;53.002;6.488;2023-02-08T21:24:20;1.00;99.90
54192;DHT22;40101;53.002;6.488;2023-02-08T21:26:48;1.00;99.90
54192;DHT22;40101;53.002;6.488;2023-02-08T21:29:14;1.00;99.90
54192;DHT22;40101;53.002;6.488;2023-02-08T21:31:40;1.00;99.90
54192;DHT22;40101;53.002;6.488;2023-02-08T21:34:06;1.00;99.90
54192;DHT22;40101;53.002;6.488;2023-02-08T21:36:32;1.00;99.90
54192;DHT22;40101;53.002;6.488;2023-02-08T21:38:58;1.00;99.90
54192;DHT22;40101;53.002;6.488;2023-02-08T21:41:31;1.00;99.90
54192;DHT22;40101;53.002;6.488;2023-02-08T21:43:58;1.00;99.90
54192;DHT22;40101;53.002;6.488;2023-02-08T21:46:24;1.00;99.90
54192;DHT22;40101;53.002;6.488;2023-02-08T21:48:55;1.00;99.90
54192;DHT22;40101;53.002;6.488;2023-02-08T21:51:39;1.10;99.90
54192;DHT22;40101;53.002;6.488;2023-02-08T21:54:25;1.10;99.90
54192;DHT22;40101;53.002;6.488;2023-02-08T21:57:12;1.10;99.90
54192;DHT22;40101;53.002;6.488;2023-02-08T21:59:38;1.10;99.90
54192;DHT22;40101;53.002;6.488;2023-02-08T22:02:06;1.10;99.90
54192;DHT22;40101;53.002;6.488;2023-02-08T22:04:33;1.00;99.90
54192;DHT22;40101;53.002;6.488;2023-02-08T22:07:00;1.10;99.90
54192;DHT22;40101;53.002;6.488;2023-02-08T22:09:26;1.00;99.90
54192;DHT22;40101;53.002;6.488;2023-02-08T22:11:54;1.00;99.90
54192;DHT22;40101;53.002;6.488;2023-02-08T22:49:45;0.80;99.90
54192;DHT22;40101;53.002;6.488;2023-02-08T22:59:55;0.80;99.90
54192;DHT22;40101;53.002;6.488;2023-02-08T23:02:47;-0.10;99.90
54192;DHT22;40101;53.002;6.488;2023-02-08T23:17:05;0.80;99.90
54192;DHT22;40101;53.002;6.488;2023-02-08T23:22:36;0.80;99.90